sensor_id;sensor_type;location;lat;lon;timestamp;temperature;humidity
77305;DHT22;66364;52.622;7.746;2023-05-14T00:01:14;13.50;99.90
77305;DHT22;66364;52.622;7.746;2023-05-14T00:03:15;13.40;99.90
77305;DHT22;66364;52.622;7.746;2023-05-14T00:05:22;13.40;99.90
77305;DHT22;66364;52.622;7.746;2023-05-14T00:07:23;13.40;99.90
77305;DHT22;66364;52.622;7.746;2023-05-14T00:09:24;13.40;99.90
77305;DHT22;66364;52.622;7.746;2023-05-14T00:11:26;13.30;99.90
77305;DHT22;66364;52.622;7.746;2023-05-14T00:13:28;13.40;99.90
77305;DHT22;66364;52.622;7.746;2023-05-14T00:15:28;13.30;99.90
77305;DHT22;66364;52.622;7.746;2023-05-14T00:17:33;13.30;99.90
77305;DHT22;66364;52.622;7.746;2023-05-14T00:19:35;13.20;99.90
77305;DHT22;66364;52.622;7.746;2023-05-14T00:21:36;13.20;99.90
77305;DHT22;66364;52.622;7.746;2023-05-14T00:23:36;13.20;99.90
77305;DHT22;66364;52.622;7.746;2023-05-14T00:25:37;13.20;99.90
77305;DHT22;66364;52.622;7.746;2023-05-14T00:27:39;13.10;99.90
77305;DHT22;66364;52.622;7.746;2023-05-14T00:29:40;13.10;99.90
77305;DHT22;66364;52.622;7.746;2023-05-14T00:31:41;13.10;99.90
77305;DHT22;66364;52.622;7.746;2023-05-14T00:33:43;13.20;99.90
77305;DHT22;66364;52.622;7.746;2023-05-14T00:36:03;13.20;99.90
77305;DHT22;66364;52.622;7.746;2023-05-14T00:38:05;13.10;99.90
77305;DHT22;66364;52.622;7.746;2023-05-14T00:40:07;13.10;99.90
77305;DHT22;66364;52.622;7.746;2023-05-14T00:42:08;13.10;99.90
77305;DHT22;66364;52.622;7.746;2023-05-14T00:44:10;13.00;99.90
77305;DHT22;66364;52.622;7.746;2023-05-14T00:46:11;13.00;99.90
77305;DHT22;66364;52.622;7.746;2023-05-14T00:48:14;13.00;99.90
77305;DHT22;66364;52.622;7.746;2023-05-14T00:50:16;13.00;99.90
77305;DHT22;66364;52.622;7.746;2023-05-14T00:52:19;13.00;99.90
77305;DHT22;66364;52.622;7.746;2023-05-14T00:54:32;13.00;99.90
77305;DHT22;66364;52.622;7.746;2023-05-14T00:56:34;13.00;99.90
77305;DHT22;66364;52.622;7.746;2023-05-14T00:58:35;13.00;99.90
77305;DHT22;66364;52.622;7.746;2023-05-14T01:00:37;12.90;99.90
77305;DHT22;66364;52.622;7.746;2023-05-14T01:02:38;13.00;99.90
77305;DHT22;66364;52.622;7.746;2023-05-14T01:04:40;13.00;99.90
77305;DHT22;66364;52.622;7.746;2023-05-14T01:07:06;12.90;99.90
77305;DHT22;66364;52.622;7.746;2023-05-14T01:11:35;12.80;99.90
77305;DHT22;66364;52.622;7.746;2023-05-14T01:13:38;12.80;99.90
77305;DHT22;66364;52.622;7.746;2023-05-14T01:15:38;12.70;99.90
77305;DHT22;66364;52.622;7.746;2023-05-14T01:17:55;12.50;99.90
77305;DHT22;66364;52.622;7.746;2023-05-14T01:19:57;12.50;99.90
77305;DHT22;66364;52.622;7.746;2023-05-14T01:21:58;12.50;99.90
77305;DHT22;66364;52.622;7.746;2023-05-14T01:23:58;12.60;99.90
77305;DHT22;66364;52.622;7.746;2023-05-14T01:25:59;12.50;99.90
77305;DHT22;66364;52.622;7.746;2023-05-14T01:28:18;12.40;99.90
77305;DHT22;66364;52.622;7.746;2023-05-14T01:32:32;12.30;99.90
77305;DHT22;66364;52.622;7.746;2023-05-14T01:34:35;12.10;99.90
77305;DHT22;66364;52.622;7.746;2023-05-14T01:36:37;12.10;99.90
77305;DHT22;66364;52.622;7.746;2023-05-14T01:38:41;12.30;99.90
77305;DHT22;66364;52.622;7.746;2023-05-14T01:40:44;12.20;99.90
77305;DHT22;66364;52.622;7.746;2023-05-14T01:42:45;12.20;99.90
77305;DHT22;66364;52.622;7.746;2023-05-14T01:44:48;12.40;99.90
77305;DHT22;66364;52.622;7.746;2023-05-14T01:46:49;12.40;99.90
77305;DHT22;66364;52.622;7.746;2023-05-14T01:48:50;12.20;99.90
77305;DHT22;66364;52.622;7.746;2023-05-14T01:50:54;12.10;99.90
77305;DHT22;66364;52.622;7.746;2023-05-14T01:52:55;11.90;99.90
77305;DHT22;66364;52.622;7.746;2023-05-14T01:54:55;12.00;99.90
77305;DHT22;66364;52.622;7.746;2023-05-14T01:56:57;12.10;99.90
77305;DHT22;66364;52.622;7.746;2023-05-14T01:58:58;12.30;99.90
77305;DHT22;66364;52.622;7.746;2023-05-14T02:00:59;12.40;99.90
77305;DHT22;66364;52.622;7.746;2023-05-14T02:03:06;12.30;99.90
77305;DHT22;66364;52.622;7.746;2023-05-14T02:05:13;12.00;99.90
77305;DHT22;66364;52.622;7.746;2023-05-14T02:07:11;11.90;99.90
77305;DHT22;66364;52.622;7.746;2023-05-14T02:09:12;11.80;99.90
77305;DHT22;66364;52.622;7.746;2023-05-14T02:11:14;11.60;99.90
77305;DHT22;66364;52.622;7.746;2023-05-14T02:13:15;11.90;99.90
77305;DHT22;66364;52.622;7.746;2023-05-14T02:15:16;12.00;99.90
77305;DHT22;66364;52.622;7.746;2023-05-14T02:17:19;11.70;99.90
77305;DHT22;66364;52.622;7.746;2023-05-14T02:19:20;11.80;99.90
77305;DHT22;66364;52.622;7.746;2023-05-14T02:21:21;11.80;99.90
77305;DHT22;66364;52.622;7.746;2023-05-14T02:23:22;11.90;99.90
77305;DHT22;66364;52.622;7.746;2023-05-14T02:25:23;11.70;99.90
77305;DHT22;66364;52.622;7.746;2023-05-14T02:27:24;11.80;99.90
77305;DHT22;66364;52.622;7.746;2023-05-14T02:29:26;11.80;99.90
77305;DHT22;66364;52.622;7.746;2023-05-14T02:31:27;11.50;99.90
77305;DHT22;66364;52.622;7.746;2023-05-14T02:33:28;11.90;99.90
77305;DHT22;66364;52.622;7.746;2023-05-14T02:35:29;11.60;99.90
77305;DHT22;66364;52.622;7.746;2023-05-14T02:37:31;11.60;99.90
77305;DHT22;66364;52.622;7.746;2023-05-14T02:39:32;11.50;99.90
77305;DHT22;66364;52.622;7.746;2023-05-14T02:41:40;11.40;99.90
77305;DHT22;66364;52.622;7.746;2023-05-14T02:43:42;11.40;99.90
77305;DHT22;66364;52.622;7.746;2023-05-14T02:45:44;11.50;99.90
77305;DHT22;66364;52.622;7.746;2023-05-14T02:47:44;11.40;99.90
77305;DHT22;66364;52.622;7.746;2023-05-14T02:49:45;11.40;99.90
77305;DHT22;66364;52.622;7.746;2023-05-14T02:51:46;11.30;99.90
77305;DHT22;66364;52.622;7.746;2023-05-14T02:53:47;11.20;99.90
77305;DHT22;66364;52.622;7.746;2023-05-14T02:55:48;11.50;99.90
77305;DHT22;66364;52.622;7.746;2023-05-14T02:57:49;11.30;99.90
77305;DHT22;66364;52.622;7.746;2023-05-14T02:59:50;11.40;99.90
77305;DHT22;66364;52.622;7.746;2023-05-14T03:01:52;11.50;99.90
77305;DHT22;66364;52.622;7.746;2023-05-14T03:03:52;11.20;99.90
77305;DHT22;66364;52.622;7.746;2023-05-14T03:05:54;11.10;99.90
77305;DHT22;66364;52.622;7.746;2023-05-14T03:07:55;11.00;99.90
77305;DHT22;66364;52.622;7.746;2023-05-14T03:09:56;11.20;99.90
77305;DHT22;66364;52.622;7.746;2023-05-14T03:11:57;11.20;99.90
77305;DHT22;66364;52.622;7.746;2023-05-14T03:13:58;11.00;99.90
77305;DHT22;66364;52.622;7.746;2023-05-14T03:15:59;11.00;99.90
77305;DHT22;66364;52.622;7.746;2023-05-14T03:18:01;11.00;99.90
77305;DHT22;66364;52.622;7.746;2023-05-14T03:20:02;11.00;99.90
77305;DHT22;66364;52.622;7.746;2023-05-14T03:22:05;11.40;99.90
77305;DHT22;66364;52.622;7.746;2023-05-14T03:24:06;11.20;99.90
77305;DHT22;66364;52.622;7.746;2023-05-14T03:26:08;11.30;99.90
77305;DHT22;66364;52.622;7.746;2023-05-14T03:28:08;11.30;99.90
77305;DHT22;66364;52.622;7.746;2023-05-14T03:30:10;11.30;99.90
77305;DHT22;66364;52.622;7.746;2023-05-14T03:32:12;11.10;99.90
77305;DHT22;66364;52.622;7.746;2023-05-14T03:34:13;11.20;99.90
77305;DHT22;66364;52.622;7.746;2023-05-14T03:36:14;11.40;99.90
77305;DHT22;66364;52.622;7.746;2023-05-14T03:38:15;11.00;99.90
77305;DHT22;66364;52.622;7.746;2023-05-14T03:40:17;11.00;99.90
77305;DHT22;66364;52.622;7.746;2023-05-14T03:42:18;11.00;99.90
77305;DHT22;66364;52.622;7.746;2023-05-14T03:44:19;11.00;99.90
77305;DHT22;66364;52.622;7.746;2023-05-14T03:46:21;11.00;99.90
77305;DHT22;66364;52.622;7.746;2023-05-14T03:48:22;11.00;99.90
77305;DHT22;66364;52.622;7.746;2023-05-14T03:50:23;11.00;99.90
77305;DHT22;66364;52.622;7.746;2023-05-14T03:52:25;11.00;99.90
77305;DHT22;66364;52.622;7.746;2023-05-14T03:54:26;11.00;99.90
77305;DHT22;66364;52.622;7.746;2023-05-14T03:56:27;11.20;99.90
77305;DHT22;66364;52.622;7.746;2023-05-14T03:58:28;11.40;99.90
77305;DHT22;66364;52.622;7.746;2023-05-14T04:00:29;11.10;99.90
77305;DHT22;66364;52.622;7.746;2023-05-14T04:02:30;11.10;99.90
77305;DHT22;66364;52.622;7.746;2023-05-14T04:04:32;11.20;99.90
77305;DHT22;66364;52.622;7.746;2023-05-14T04:06:33;11.00;99.90
77305;DHT22;66364;52.622;7.746;2023-05-14T04:08:36;11.00;99.90
77305;DHT22;66364;52.622;7.746;2023-05-14T04:10:38;11.30;99.90
77305;DHT22;66364;52.622;7.746;2023-05-14T04:12:39;11.00;99.90
77305;DHT22;66364;52.622;7.746;2023-05-14T04:14:40;11.00;99.90
77305;DHT22;66364;52.622;7.746;2023-05-14T04:16:41;11.00;99.90
77305;DHT22;66364;52.622;7.746;2023-05-14T04:18:42;11.00;99.90
77305;DHT22;66364;52.622;7.746;2023-05-14T04:20:43;11.10;99.90
77305;DHT22;66364;52.622;7.746;2023-05-14T04:22:45;11.40;99.90
77305;DHT22;66364;52.622;7.746;2023-05-14T04:24:47;11.10;99.90
77305;DHT22;66364;52.622;7.746;2023-05-14T04:26:47;11.10;99.90
77305;DHT22;66364;52.622;7.746;2023-05-14T04:28:49;11.10;99.90
77305;DHT22;66364;52.622;7.746;2023-05-14T04:30:51;11.20;99.90
77305;DHT22;66364;52.622;7.746;2023-05-14T04:32:53;11.20;99.90
77305;DHT22;66364;52.622;7.746;2023-05-14T04:34:55;11.30;99.90
77305;DHT22;66364;52.622;7.746;2023-05-14T04:37:07;11.10;99.90
77305;DHT22;66364;52.622;7.746;2023-05-14T04:39:10;11.30;99.90
77305;DHT22;66364;52.622;7.746;2023-05-14T04:41:13;11.30;99.90
77305;DHT22;66364;52.622;7.746;2023-05-14T04:43:14;11.30;99.90
77305;DHT22;66364;52.622;7.746;2023-05-14T04:45:15;11.30;99.90
77305;DHT22;66364;52.622;7.746;2023-05-14T04:47:17;11.30;99.90
77305;DHT22;66364;52.622;7.746;2023-05-14T04:49:20;11.40;99.90
77305;DHT22;66364;52.622;7.746;2023-05-14T04:51:22;11.30;99.90
77305;DHT22;66364;52.622;7.746;2023-05-14T04:53:23;11.30;99.90
77305;DHT22;66364;52.622;7.746;2023-05-14T04:55:24;11.30;99.90
77305;DHT22;66364;52.622;7.746;2023-05-14T04:57:25;11.40;99.90
77305;DHT22;66364;52.622;7.746;2023-05-14T04:59:29;11.30;99.90
77305;DHT22;66364;52.622;7.746;2023-05-14T05:01:30;11.40;99.90
77305;DHT22;66364;52.622;7.746;2023-05-14T05:03:31;11.30;99.90
77305;DHT22;66364;52.622;7.746;2023-05-14T05:05:32;11.30;99.90
77305;DHT22;66364;52.622;7.746;2023-05-14T05:07:34;11.50;99.90
77305;DHT22;66364;52.622;7.746;2023-05-14T05:09:36;11.40;99.90
77305;DHT22;66364;52.622;7.746;2023-05-14T05:11:38;11.40;99.90
77305;DHT22;66364;52.622;7.746;2023-05-14T05:13:39;11.50;99.90
77305;DHT22;66364;52.622;7.746;2023-05-14T05:15:40;11.40;99.90
77305;DHT22;66364;52.622;7.746;2023-05-14T05:17:41;11.60;99.90
77305;DHT22;66364;52.622;7.746;2023-05-14T05:19:42;11.90;99.90
77305;DHT22;66364;52.622;7.746;2023-05-14T05:21:45;11.80;99.90
77305;DHT22;66364;52.622;7.746;2023-05-14T05:23:47;11.90;99.90
77305;DHT22;66364;52.622;7.746;2023-05-14T05:25:48;11.80;99.90
77305;DHT22;66364;52.622;7.746;2023-05-14T05:27:49;11.90;99.90
77305;DHT22;66364;52.622;7.746;2023-05-14T05:29:50;12.10;99.90
77305;DHT22;66364;52.622;7.746;2023-05-14T05:31:51;12.30;99.90
77305;DHT22;66364;52.622;7.746;2023-05-14T05:33:53;12.10;99.90
77305;DHT22;66364;52.622;7.746;2023-05-14T05:35:55;12.30;99.90
77305;DHT22;66364;52.622;7.746;2023-05-14T05:37:56;12.30;99.90
77305;DHT22;66364;52.622;7.746;2023-05-14T05:39:58;12.40;99.90
77305;DHT22;66364;52.622;7.746;2023-05-14T05:42:00;12.50;99.90
77305;DHT22;66364;52.622;7.746;2023-05-14T05:44:02;12.50;99.90
77305;DHT22;66364;52.622;7.746;2023-05-14T05:46:03;12.50;99.90
77305;DHT22;66364;52.622;7.746;2023-05-14T05:48:05;12.50;99.90
77305;DHT22;66364;52.622;7.746;2023-05-14T05:50:07;12.50;99.90
77305;DHT22;66364;52.622;7.746;2023-05-14T05:52:08;12.50;99.90
77305;DHT22;66364;52.622;7.746;2023-05-14T05:54:10;12.70;99.90
77305;DHT22;66364;52.622;7.746;2023-05-14T05:56:10;12.60;99.90
77305;DHT22;66364;52.622;7.746;2023-05-14T05:58:12;12.70;99.90
77305;DHT22;66364;52.622;7.746;2023-05-14T06:00:14;12.80;99.90
77305;DHT22;66364;52.622;7.746;2023-05-14T06:02:15;12.60;99.90
77305;DHT22;66364;52.622;7.746;2023-05-14T06:04:16;12.90;99.90
77305;DHT22;66364;52.622;7.746;2023-05-14T06:06:17;13.00;99.90
77305;DHT22;66364;52.622;7.746;2023-05-14T06:08:18;13.20;99.90
77305;DHT22;66364;52.622;7.746;2023-05-14T06:10:19;13.20;99.90
77305;DHT22;66364;52.622;7.746;2023-05-14T06:12:20;13.30;99.90
77305;DHT22;66364;52.622;7.746;2023-05-14T06:14:21;13.40;99.90
77305;DHT22;66364;52.622;7.746;2023-05-14T06:16:22;13.60;99.90
77305;DHT22;66364;52.622;7.746;2023-05-14T06:18:23;13.60;99.90
77305;DHT22;66364;52.622;7.746;2023-05-14T06:20:23;13.70;99.90
77305;DHT22;66364;52.622;7.746;2023-05-14T06:22:25;13.80;99.90
77305;DHT22;66364;52.622;7.746;2023-05-14T06:24:25;13.90;99.90
77305;DHT22;66364;52.622;7.746;2023-05-14T06:26:27;14.00;99.90
77305;DHT22;66364;52.622;7.746;2023-05-14T06:28:28;14.20;99.90
77305;DHT22;66364;52.622;7.746;2023-05-14T06:30:29;14.20;99.90
77305;DHT22;66364;52.622;7.746;2023-05-14T06:32:31;14.30;99.90
77305;DHT22;66364;52.622;7.746;2023-05-14T06:34:32;14.40;99.90
77305;DHT22;66364;52.622;7.746;2023-05-14T06:36:34;14.50;99.90
77305;DHT22;66364;52.622;7.746;2023-05-14T06:38:35;14.50;99.90
77305;DHT22;66364;52.622;7.746;2023-05-14T06:40:36;14.60;99.90
77305;DHT22;66364;52.622;7.746;2023-05-14T06:42:37;14.70;99.90
77305;DHT22;66364;52.622;7.746;2023-05-14T06:44:38;14.80;99.90
77305;DHT22;66364;52.622;7.746;2023-05-14T06:46:39;14.90;99.90
77305;DHT22;66364;52.622;7.746;2023-05-14T06:48:40;14.90;99.90
77305;DHT22;66364;52.622;7.746;2023-05-14T06:50:42;14.90;99.90
77305;DHT22;66364;52.622;7.746;2023-05-14T06:52:43;15.00;99.90
77305;DHT22;66364;52.622;7.746;2023-05-14T06:54:44;15.00;99.90
77305;DHT22;66364;52.622;7.746;2023-05-14T06:56:45;15.10;99.90
77305;DHT22;66364;52.622;7.746;2023-05-14T06:58:47;15.30;99.90
77305;DHT22;66364;52.622;7.746;2023-05-14T07:00:48;15.30;99.90
77305;DHT22;66364;52.622;7.746;2023-05-14T07:02:49;15.40;99.90
77305;DHT22;66364;52.622;7.746;2023-05-14T07:04:50;15.30;99.90
77305;DHT22;66364;52.622;7.746;2023-05-14T07:06:51;15.70;99.90
77305;DHT22;66364;52.622;7.746;2023-05-14T07:08:52;15.90;99.90
77305;DHT22;66364;52.622;7.746;2023-05-14T07:10:53;16.00;99.90
77305;DHT22;66364;52.622;7.746;2023-05-14T07:12:55;16.10;99.90
77305;DHT22;66364;52.622;7.746;2023-05-14T07:14:55;15.90;99.90
77305;DHT22;66364;52.622;7.746;2023-05-14T07:16:57;16.10;99.90
77305;DHT22;66364;52.622;7.746;2023-05-14T07:18:58;16.10;99.90
77305;DHT22;66364;52.622;7.746;2023-05-14T07:20:59;16.20;99.90
77305;DHT22;66364;52.622;7.746;2023-05-14T07:23:00;16.30;99.90
77305;DHT22;66364;52.622;7.746;2023-05-14T07:25:02;16.40;99.90
77305;DHT22;66364;52.622;7.746;2023-05-14T07:27:04;16.40;99.90
77305;DHT22;66364;52.622;7.746;2023-05-14T07:29:05;16.50;99.90
77305;DHT22;66364;52.622;7.746;2023-05-14T07:31:06;16.60;99.90
77305;DHT22;66364;52.622;7.746;2023-05-14T07:33:09;16.80;99.90
77305;DHT22;66364;52.622;7.746;2023-05-14T07:35:10;16.90;99.90
77305;DHT22;66364;52.622;7.746;2023-05-14T07:37:11;17.10;99.90
77305;DHT22;66364;52.622;7.746;2023-05-14T07:39:12;17.20;99.90
77305;DHT22;66364;52.622;7.746;2023-05-14T07:41:13;17.50;99.90
77305;DHT22;66364;52.622;7.746;2023-05-14T07:43:14;17.30;99.90
77305;DHT22;66364;52.622;7.746;2023-05-14T07:45:15;17.40;99.90
77305;DHT22;66364;52.622;7.746;2023-05-14T07:47:20;17.40;97.50
77305;DHT22;66364;52.622;7.746;2023-05-14T07:49:22;17.30;97.60
77305;DHT22;66364;52.622;7.746;2023-05-14T07:51:23;17.40;99.90
77305;DHT22;66364;52.622;7.746;2023-05-14T07:53:24;17.30;97.80
77305;DHT22;66364;52.622;7.746;2023-05-14T07:55:25;17.30;97.30
77305;DHT22;66364;52.622;7.746;2023-05-14T07:57:26;17.20;98.60
77305;DHT22;66364;52.622;7.746;2023-05-14T07:59:27;17.40;97.70
77305;DHT22;66364;52.622;7.746;2023-05-14T08:01:28;17.80;98.20
77305;DHT22;66364;52.622;7.746;2023-05-14T08:03:29;18.10;94.30
77305;DHT22;66364;52.622;7.746;2023-05-14T08:05:29;18.30;93.90
77305;DHT22;66364;52.622;7.746;2023-05-14T08:07:30;18.60;92.90
77305;DHT22;66364;52.622;7.746;2023-05-14T08:09:31;18.50;90.10
77305;DHT22;66364;52.622;7.746;2023-05-14T08:11:32;18.50;92.10
77305;DHT22;66364;52.622;7.746;2023-05-14T08:13:33;18.60;88.60
77305;DHT22;66364;52.622;7.746;2023-05-14T08:15:34;18.60;85.20
77305;DHT22;66364;52.622;7.746;2023-05-14T08:17:36;18.30;90.50
77305;DHT22;66364;52.622;7.746;2023-05-14T08:19:37;18.20;89.10
77305;DHT22;66364;52.622;7.746;2023-05-14T08:21:39;18.40;87.60
77305;DHT22;66364;52.622;7.746;2023-05-14T08:23:40;18.60;87.00
77305;DHT22;66364;52.622;7.746;2023-05-14T08:25:41;18.80;85.90
77305;DHT22;66364;52.622;7.746;2023-05-14T08:27:42;18.90;81.50
77305;DHT22;66364;52.622;7.746;2023-05-14T08:29:43;19.00;76.00
77305;DHT22;66364;52.622;7.746;2023-05-14T08:31:45;19.10;77.20
77305;DHT22;66364;52.622;7.746;2023-05-14T08:33:45;19.10;76.40
77305;DHT22;66364;52.622;7.746;2023-05-14T08:35:46;19.10;78.30
77305;DHT22;66364;52.622;7.746;2023-05-14T08:37:49;19.00;74.70
77305;DHT22;66364;52.622;7.746;2023-05-14T08:39:50;19.40;77.10
77305;DHT22;66364;52.622;7.746;2023-05-14T08:41:52;19.70;71.90
77305;DHT22;66364;52.622;7.746;2023-05-14T08:44:16;19.70;71.20
77305;DHT22;66364;52.622;7.746;2023-05-14T08:46:17;19.60;74.40
77305;DHT22;66364;52.622;7.746;2023-05-14T08:48:21;19.60;70.80
77305;DHT22;66364;52.622;7.746;2023-05-14T08:50:24;19.60;74.80
77305;DHT22;66364;52.622;7.746;2023-05-14T08:52:26;19.80;72.30
77305;DHT22;66364;52.622;7.746;2023-05-14T08:54:27;20.00;71.30
77305;DHT22;66364;52.622;7.746;2023-05-14T08:56:33;20.30;67.00
77305;DHT22;66364;52.622;7.746;2023-05-14T08:58:35;20.20;66.10
77305;DHT22;66364;52.622;7.746;2023-05-14T09:00:36;20.30;63.10
77305;DHT22;66364;52.622;7.746;2023-05-14T09:02:39;20.10;65.50
77305;DHT22;66364;52.622;7.746;2023-05-14T09:04:41;20.10;62.40
77305;DHT22;66364;52.622;7.746;2023-05-14T09:06:43;20.10;63.90
77305;DHT22;66364;52.622;7.746;2023-05-14T09:08:45;20.40;66.00
77305;DHT22;66364;52.622;7.746;2023-05-14T09:10:46;20.50;59.30
77305;DHT22;66364;52.622;7.746;2023-05-14T09:12:47;20.30;60.10
77305;DHT22;66364;52.622;7.746;2023-05-14T09:14:49;20.20;60.50
77305;DHT22;66364;52.622;7.746;2023-05-14T09:17:00;20.40;58.30
77305;DHT22;66364;52.622;7.746;2023-05-14T09:19:03;20.60;55.50
77305;DHT22;66364;52.622;7.746;2023-05-14T09:21:04;20.50;54.80
77305;DHT22;66364;52.622;7.746;2023-05-14T09:23:05;21.00;55.80
77305;DHT22;66364;52.622;7.746;2023-05-14T09:25:09;21.30;53.30
77305;DHT22;66364;52.622;7.746;2023-05-14T09:27:19;21.10;53.70
77305;DHT22;66364;52.622;7.746;2023-05-14T09:29:23;21.10;55.20
77305;DHT22;66364;52.622;7.746;2023-05-14T09:31:24;21.00;52.30
77305;DHT22;66364;52.622;7.746;2023-05-14T09:33:27;21.20;49.10
77305;DHT22;66364;52.622;7.746;2023-05-14T09:35:28;21.50;47.70
77305;DHT22;66364;52.622;7.746;2023-05-14T09:37:29;21.50;48.40
77305;DHT22;66364;52.622;7.746;2023-05-14T09:39:31;22.00;48.40
77305;DHT22;66364;52.622;7.746;2023-05-14T09:41:33;22.50;44.20
77305;DHT22;66364;52.622;7.746;2023-05-14T09:43:34;22.60;40.60
77305;DHT22;66364;52.622;7.746;2023-05-14T09:45:35;22.60;40.40
77305;DHT22;66364;52.622;7.746;2023-05-14T09:47:37;22.40;42.40
77305;DHT22;66364;52.622;7.746;2023-05-14T09:49:38;22.90;40.60
77305;DHT22;66364;52.622;7.746;2023-05-14T09:51:40;23.50;37.20
77305;DHT22;66364;52.622;7.746;2023-05-14T09:53:45;23.40;38.40
77305;DHT22;66364;52.622;7.746;2023-05-14T09:55:46;24.10;38.60
77305;DHT22;66364;52.622;7.746;2023-05-14T09:57:47;24.40;40.70
77305;DHT22;66364;52.622;7.746;2023-05-14T09:59:48;24.40;36.90
77305;DHT22;66364;52.622;7.746;2023-05-14T10:01:49;24.60;41.10
77305;DHT22;66364;52.622;7.746;2023-05-14T10:03:55;24.50;37.40
77305;DHT22;66364;52.622;7.746;2023-05-14T10:05:59;24.50;33.00
77305;DHT22;66364;52.622;7.746;2023-05-14T10:08:13;24.40;37.50
77305;DHT22;66364;52.622;7.746;2023-05-14T10:10:20;24.70;35.50
77305;DHT22;66364;52.622;7.746;2023-05-14T10:12:24;24.50;39.40
77305;DHT22;66364;52.622;7.746;2023-05-14T10:14:32;24.60;38.30
77305;DHT22;66364;52.622;7.746;2023-05-14T10:16:36;25.10;40.20
77305;DHT22;66364;52.622;7.746;2023-05-14T10:18:45;25.50;39.40
77305;DHT22;66364;52.622;7.746;2023-05-14T10:21:03;25.70;35.80
77305;DHT22;66364;52.622;7.746;2023-05-14T10:23:05;25.10;29.90
77305;DHT22;66364;52.622;7.746;2023-05-14T10:25:07;24.20;30.00
77305;DHT22;66364;52.622;7.746;2023-05-14T10:27:09;24.00;32.50
77305;DHT22;66364;52.622;7.746;2023-05-14T10:29:10;24.10;30.90
77305;DHT22;66364;52.622;7.746;2023-05-14T10:31:12;23.90;30.10
77305;DHT22;66364;52.622;7.746;2023-05-14T10:33:15;23.70;33.90
77305;DHT22;66364;52.622;7.746;2023-05-14T10:35:17;24.20;30.90
77305;DHT22;66364;52.622;7.746;2023-05-14T10:37:25;24.80;29.00
77305;DHT22;66364;52.622;7.746;2023-05-14T10:39:48;25.10;28.20
77305;DHT22;66364;52.622;7.746;2023-05-14T10:41:49;25.30;32.30
77305;DHT22;66364;52.622;7.746;2023-05-14T10:43:50;25.40;31.60
77305;DHT22;66364;52.622;7.746;2023-05-14T10:45:52;25.30;26.80
77305;DHT22;66364;52.622;7.746;2023-05-14T10:47:54;25.40;26.30
77305;DHT22;66364;52.622;7.746;2023-05-14T10:49:57;25.20;28.10
77305;DHT22;66364;52.622;7.746;2023-05-14T10:51:58;25.00;25.70
77305;DHT22;66364;52.622;7.746;2023-05-14T10:53:59;24.70;27.50
77305;DHT22;66364;52.622;7.746;2023-05-14T10:56:06;24.20;27.60
77305;DHT22;66364;52.622;7.746;2023-05-14T10:58:12;23.60;29.10
77305;DHT22;66364;52.622;7.746;2023-05-14T11:00:12;23.80;33.30
77305;DHT22;66364;52.622;7.746;2023-05-14T11:04:27;24.30;28.50
77305;DHT22;66364;52.622;7.746;2023-05-14T11:06:28;24.40;30.50
77305;DHT22;66364;52.622;7.746;2023-05-14T11:08:30;24.20;29.00
77305;DHT22;66364;52.622;7.746;2023-05-14T11:10:31;24.30;27.80
77305;DHT22;66364;52.622;7.746;2023-05-14T11:12:34;24.30;27.80
77305;DHT22;66364;52.622;7.746;2023-05-14T11:14:36;24.60;30.20
77305;DHT22;66364;52.622;7.746;2023-05-14T11:16:37;24.20;28.80
77305;DHT22;66364;52.622;7.746;2023-05-14T11:18:38;24.10;29.60
77305;DHT22;66364;52.622;7.746;2023-05-14T11:20:39;24.40;28.50
77305;DHT22;66364;52.622;7.746;2023-05-14T11:22:41;24.40;28.70
77305;DHT22;66364;52.622;7.746;2023-05-14T11:24:42;24.30;26.30
77305;DHT22;66364;52.622;7.746;2023-05-14T11:26:44;24.20;28.20
77305;DHT22;66364;52.622;7.746;2023-05-14T11:28:45;24.40;25.10
77305;DHT22;66364;52.622;7.746;2023-05-14T11:30:55;23.90;27.90
77305;DHT22;66364;52.622;7.746;2023-05-14T11:32:56;24.10;30.00
77305;DHT22;66364;52.622;7.746;2023-05-14T11:34:57;24.70;28.60
77305;DHT22;66364;52.622;7.746;2023-05-14T11:37:07;24.60;23.90
77305;DHT22;66364;52.622;7.746;2023-05-14T11:39:17;23.80;26.50
77305;DHT22;66364;52.622;7.746;2023-05-14T11:41:18;23.20;29.50
77305;DHT22;66364;52.622;7.746;2023-05-14T11:43:20;23.60;32.20
77305;DHT22;66364;52.622;7.746;2023-05-14T11:45:26;24.20;26.10
77305;DHT22;66364;52.622;7.746;2023-05-14T11:47:36;24.60;26.70
77305;DHT22;66364;52.622;7.746;2023-05-14T11:49:38;24.80;24.10
77305;DHT22;66364;52.622;7.746;2023-05-14T11:51:38;24.30;23.50
77305;DHT22;66364;52.622;7.746;2023-05-14T11:53:49;24.50;30.00
77305;DHT22;66364;52.622;7.746;2023-05-14T11:55:51;24.30;30.00
77305;DHT22;66364;52.622;7.746;2023-05-14T11:57:53;24.40;26.80
77305;DHT22;66364;52.622;7.746;2023-05-14T11:59:54;24.70;25.90
77305;DHT22;66364;52.622;7.746;2023-05-14T12:01:55;24.60;26.50
77305;DHT22;66364;52.622;7.746;2023-05-14T12:03:59;24.40;27.80
77305;DHT22;66364;52.622;7.746;2023-05-14T12:06:15;24.00;26.30
77305;DHT22;66364;52.622;7.746;2023-05-14T12:08:24;23.60;27.20
77305;DHT22;66364;52.622;7.746;2023-05-14T12:10:22;23.70;27.40
77305;DHT22;66364;52.622;7.746;2023-05-14T12:12:23;23.90;27.90
77305;DHT22;66364;52.622;7.746;2023-05-14T12:14:24;23.70;30.00
77305;DHT22;66364;52.622;7.746;2023-05-14T12:16:29;23.90;26.70
77305;DHT22;66364;52.622;7.746;2023-05-14T12:18:31;24.20;25.90
77305;DHT22;66364;52.622;7.746;2023-05-14T12:20:32;24.60;27.20
77305;DHT22;66364;52.622;7.746;2023-05-14T12:22:33;24.70;27.40
77305;DHT22;66364;52.622;7.746;2023-05-14T12:24:35;24.60;26.30
77305;DHT22;66364;52.622;7.746;2023-05-14T12:26:37;24.60;26.90
77305;DHT22;66364;52.622;7.746;2023-05-14T12:28:38;24.50;24.90
77305;DHT22;66364;52.622;7.746;2023-05-14T12:30:39;24.20;25.80
77305;DHT22;66364;52.622;7.746;2023-05-14T12:32:40;23.90;25.70
77305;DHT22;66364;52.622;7.746;2023-05-14T12:34:41;24.00;29.40
77305;DHT22;66364;52.622;7.746;2023-05-14T12:36:43;24.40;25.30
77305;DHT22;66364;52.622;7.746;2023-05-14T12:38:44;24.30;25.50
77305;DHT22;66364;52.622;7.746;2023-05-14T12:40:45;24.40;29.00
77305;DHT22;66364;52.622;7.746;2023-05-14T12:42:46;24.40;24.40
77305;DHT22;66364;52.622;7.746;2023-05-14T12:44:46;24.30;27.40
77305;DHT22;66364;52.622;7.746;2023-05-14T12:46:47;24.50;26.80
77305;DHT22;66364;52.622;7.746;2023-05-14T12:48:49;24.80;23.70
77305;DHT22;66364;52.622;7.746;2023-05-14T12:50:50;24.70;23.80
77305;DHT22;66364;52.622;7.746;2023-05-14T12:52:50;24.30;25.20
77305;DHT22;66364;52.622;7.746;2023-05-14T12:54:52;24.10;24.90
77305;DHT22;66364;52.622;7.746;2023-05-14T12:57:03;24.20;21.90
77305;DHT22;66364;52.622;7.746;2023-05-14T12:59:04;24.30;18.20